createdAt,value
2018-02-03T00:02:23.514Z,8.80
2018-02-03T00:05:06.601Z,9.30
2018-02-03T00:07:32.504Z,8.83
2018-02-03T00:10:13.080Z,11.57
2018-02-03T00:12:48.501Z,8.50
2018-02-03T00:15:31.334Z,12.00
2018-02-03T00:18:13.495Z,9.20
2018-02-03T00:20:39.412Z,5.97
2018-02-03T00:23:19.932Z,9.87
2018-02-03T00:25:45.808Z,7.03
2018-02-03T00:28:26.278Z,8.73
2018-02-03T00:31:01.212Z,8.33
2018-02-03T00:33:43.566Z,8.37
2018-02-03T00:36:25.678Z,8.63
2018-02-03T00:38:51.521Z,9.37
2018-02-03T00:41:33.482Z,10.13
2018-02-03T00:44:17.154Z,14.27
2018-02-03T00:47:00.471Z,12.43
2018-02-03T00:49:26.332Z,9.37
2018-02-03T00:51:52.278Z,11.87
2018-02-03T00:54:18.125Z,7.93
2018-02-03T00:56:43.973Z,8.40
2018-02-03T00:59:09.861Z,9.23
2018-02-03T01:01:35.796Z,12.10
2018-02-03T01:04:01.685Z,9.00
2018-02-03T01:06:27.787Z,9.63
2018-02-03T01:08:53.726Z,10.10
2018-02-03T01:11:19.616Z,12.23
2018-02-03T01:14:01.045Z,10.97
2018-02-03T01:16:26.890Z,10.30
2018-02-03T01:18:52.876Z,11.20
2018-02-03T01:21:18.747Z,10.10
2018-02-03T01:23:44.598Z,9.87
2018-02-03T01:26:10.501Z,12.90
2018-02-03T01:28:36.374Z,10.50
2018-02-03T01:31:16.532Z,8.57
2018-02-03T01:33:42.504Z,10.20
2018-02-03T01:36:08.401Z,10.03
2018-02-03T01:38:34.308Z,10.73
2018-02-03T01:41:00.159Z,8.50
2018-02-03T01:43:26.017Z,11.07
2018-02-03T01:46:07.782Z,10.83
2018-02-03T01:48:33.668Z,7.50
2018-02-03T01:50:59.618Z,9.47
2018-02-03T01:53:25.513Z,10.77
2018-02-03T01:55:51.384Z,13.83
2018-02-03T01:58:17.241Z,10.10
2018-02-03T02:00:43.121Z,17.10
2018-02-03T02:03:08.985Z,13.83
2018-02-03T02:05:34.874Z,8.53
2018-02-03T02:08:00.768Z,13.53
2018-02-03T02:10:26.624Z,9.70
2018-02-03T02:12:52.532Z,13.80
2018-02-03T02:15:18.384Z,13.07
2018-02-03T02:17:44.255Z,11.40
2018-02-03T02:20:10.128Z,9.10
2018-02-03T02:22:35.981Z,11.37
2018-02-03T02:25:17.526Z,13.17
2018-02-03T02:27:43.408Z,9.67
2018-02-03T02:30:24.357Z,10.77
2018-02-03T02:32:50.170Z,11.13
2018-02-03T02:35:16.007Z,14.77
2018-02-03T02:37:41.897Z,12.90
2018-02-03T02:40:07.762Z,14.50
2018-02-03T02:42:33.603Z,12.63
2018-02-03T02:44:59.488Z,14.73
2018-02-03T02:47:25.352Z,11.80
2018-02-03T02:49:52.202Z,12.47
2018-02-03T02:52:18.078Z,12.50
2018-02-03T02:54:54.694Z,12.83
2018-02-03T02:57:20.576Z,11.73
2018-02-03T02:59:46.474Z,16.33
2018-02-03T03:02:12.351Z,9.23
2018-02-03T03:04:38.354Z,10.27
2018-02-03T03:07:04.202Z,10.73
2018-02-03T03:09:30.074Z,12.90
2018-02-03T03:11:55.941Z,12.07
2018-02-03T03:14:21.812Z,13.20
2018-02-03T03:16:47.650Z,13.40
2018-02-03T03:19:13.530Z,10.93
2018-02-03T03:21:39.362Z,12.60
2018-02-03T03:24:05.216Z,15.63
2018-02-03T03:26:31.061Z,13.93
2018-02-03T03:28:56.913Z,10.73
2018-02-03T03:31:40.309Z,10.40
2018-02-03T03:36:47.603Z,10.83
2018-02-03T03:39:13.446Z,13.37
2018-02-03T03:41:39.298Z,10.13
2018-02-03T03:44:06.157Z,12.77
2018-02-03T03:46:32.010Z,12.87
2018-02-03T03:48:57.888Z,12.10
2018-02-03T03:51:23.740Z,12.63
2018-02-03T03:53:49.620Z,9.73
2018-02-03T03:56:15.467Z,15.77
2018-02-03T03:58:41.314Z,13.17
2018-02-03T04:01:07.170Z,15.20
2018-02-03T04:03:33.060Z,10.33
2018-02-03T04:06:14.684Z,14.43
2018-02-03T04:08:40.579Z,11.00
2018-02-03T04:11:06.448Z,13.03
2018-02-03T04:13:32.317Z,13.97
2018-02-03T04:15:58.210Z,13.83
2018-02-03T04:18:24.080Z,13.47
2018-02-03T04:20:49.964Z,10.80
2018-02-03T04:23:15.825Z,12.53
2018-02-03T04:25:41.671Z,17.17
2018-02-03T04:28:08.505Z,11.27
2018-02-03T04:30:50.992Z,14.57
2018-02-03T04:33:16.883Z,19.07
2018-02-03T04:35:57.675Z,15.77
2018-02-03T04:38:40.315Z,14.13
2018-02-03T04:41:06.240Z,17.23
2018-02-03T04:43:33.124Z,14.07
2018-02-03T04:45:59.066Z,14.83
2018-02-03T04:48:24.942Z,14.20
2018-02-03T04:50:50.873Z,15.83
2018-02-03T04:53:16.718Z,13.27
2018-02-03T04:55:42.617Z,12.90
2018-02-03T04:58:08.502Z,17.67
2018-02-03T05:00:34.401Z,17.50
2018-02-03T05:03:00.285Z,16.53
2018-02-03T05:05:26.160Z,16.07
2018-02-03T05:07:52.104Z,15.67
2018-02-03T05:10:28.886Z,17.77
2018-02-03T05:12:55.827Z,18.40
2018-02-03T05:15:21.718Z,13.03
2018-02-03T05:17:48.642Z,15.37
2018-02-03T05:20:15.540Z,12.53
2018-02-03T05:22:41.436Z,11.40
2018-02-03T05:25:07.357Z,12.60
2018-02-03T05:27:33.220Z,17.30
2018-02-03T05:30:08.754Z,15.03
2018-02-03T05:32:35.657Z,10.77
2018-02-03T05:35:02.749Z,13.63
2018-02-03T05:37:29.675Z,10.03
2018-02-03T05:39:55.600Z,12.87
2018-02-03T05:42:38.213Z,14.20
2018-02-03T05:45:04.090Z,13.13
2018-02-03T05:47:29.982Z,10.20
2018-02-03T05:49:55.833Z,13.03
2018-02-03T05:52:21.696Z,12.10
2018-02-03T05:54:48.612Z,14.17
2018-02-03T05:57:15.579Z,11.43
2018-02-03T05:59:41.435Z,10.57
2018-02-03T06:02:07.287Z,11.73
2018-02-03T06:04:33.232Z,8.47
2018-02-03T06:06:59.169Z,12.37
2018-02-03T06:09:25.060Z,9.97
2018-02-03T06:11:52.014Z,13.13
2018-02-03T06:14:27.379Z,16.77
2018-02-03T06:16:53.248Z,15.40
2018-02-03T06:19:19.174Z,13.93
2018-02-03T06:21:46.242Z,15.27
2018-02-03T06:24:12.260Z,13.43
2018-02-03T06:26:38.203Z,12.40
2018-02-03T06:29:04.128Z,15.07
2018-02-03T06:31:42.344Z,11.27
2018-02-03T06:34:08.178Z,16.93
2018-02-03T06:36:34.064Z,16.10
2018-02-03T06:38:59.953Z,13.53
2018-02-03T06:41:26.842Z,9.97
2018-02-03T06:43:52.758Z,12.03
2018-02-03T06:46:19.694Z,10.67
2018-02-03T06:48:58.814Z,12.47
2018-02-03T06:51:24.680Z,12.33
2018-02-03T06:53:50.568Z,9.90
2018-02-03T06:56:16.470Z,13.93
2018-02-03T06:58:43.406Z,16.93
2018-02-03T07:01:09.310Z,11.60
2018-02-03T07:03:35.252Z,13.63
2018-02-03T07:06:14.782Z,14.77
2018-02-03T07:08:41.748Z,10.63
2018-02-03T07:11:07.674Z,12.27
2018-02-03T07:13:34.669Z,12.07
2018-02-03T07:16:01.635Z,14.47
2018-02-03T07:18:27.580Z,12.90
2018-02-03T07:20:54.474Z,11.90
2018-02-03T07:23:20.384Z,16.10
2018-02-03T07:25:46.272Z,13.13
2018-02-03T07:28:27.559Z,13.63
2018-02-03T07:31:09.747Z,12.27
2018-02-03T07:33:35.619Z,13.60
2018-02-03T07:36:01.508Z,13.87
2018-02-03T07:38:27.673Z,13.10
2018-02-03T07:40:53.650Z,12.93
2018-02-03T07:43:20.597Z,13.30
2018-02-03T07:45:46.496Z,14.47
2018-02-03T07:48:12.357Z,12.73
2018-02-03T07:50:39.270Z,13.83
2018-02-03T07:53:06.204Z,10.30
2018-02-03T07:55:32.184Z,19.10
2018-02-03T07:57:58.043Z,13.73
2018-02-03T08:00:34.750Z,15.63
2018-02-03T08:03:00.676Z,15.53
2018-02-03T08:05:26.652Z,16.80
2018-02-03T08:07:52.576Z,16.53
2018-02-03T08:10:18.466Z,13.70
2018-02-03T08:12:44.388Z,16.63
2018-02-03T08:15:11.296Z,21.33
2018-02-03T08:17:38.244Z,18.83
2018-02-03T08:20:04.965Z,15.90
2018-02-03T08:22:31.925Z,17.40
2018-02-03T08:24:58.880Z,13.07
2018-02-03T08:27:24.798Z,13.70
2018-02-03T08:30:08.341Z,17.33
2018-02-03T08:32:51.494Z,11.83
2018-02-03T08:35:17.421Z,14.37
2018-02-03T08:37:43.334Z,19.97
2018-02-03T08:40:09.250Z,15.97
2018-02-03T08:42:35.180Z,20.30
2018-02-03T08:45:01.038Z,20.60
2018-02-03T08:47:26.960Z,23.70
2018-02-03T08:49:53.852Z,18.00
2018-02-03T08:52:20.742Z,22.23
2018-02-03T08:54:47.732Z,21.47
2018-02-03T08:57:13.699Z,22.73
2018-02-03T08:59:39.584Z,20.70
2018-02-03T09:02:05.483Z,22.33
2018-02-03T09:04:31.405Z,19.80
2018-02-03T09:06:57.352Z,21.53
2018-02-03T09:09:37.677Z,15.43
2018-02-03T09:12:04.668Z,18.33
2018-02-03T09:14:31.610Z,21.90
2018-02-03T09:16:57.631Z,20.20
2018-02-03T09:19:24.635Z,22.57
2018-02-03T09:21:50.524Z,23.87
2018-02-03T09:24:16.433Z,21.00
2018-02-03T09:26:42.334Z,21.60
2018-02-03T09:29:08.264Z,19.33
2018-02-03T09:31:50.189Z,22.77
2018-02-03T09:34:16.073Z,22.90
2018-02-03T09:36:41.974Z,23.80
2018-02-03T09:39:07.868Z,26.47
2018-02-03T09:41:45.117Z,28.37
2018-02-03T09:44:28.691Z,28.47
2018-02-03T09:46:55.715Z,31.97
2018-02-03T09:49:21.659Z,29.33
2018-02-03T09:51:47.542Z,28.77
2018-02-03T09:54:13.466Z,31.30
2018-02-03T09:56:39.342Z,27.67
2018-02-03T09:59:05.255Z,31.53
2018-02-03T10:01:31.160Z,36.57
2018-02-03T10:03:58.110Z,26.53
2018-02-03T10:06:24.009Z,31.20
2018-02-03T10:08:51.055Z,27.23
2018-02-03T10:11:17.043Z,27.93
2018-02-03T10:13:43.155Z,23.93
2018-02-03T10:16:09.128Z,23.40
2018-02-03T10:18:51.424Z,26.80
2018-02-03T10:21:33.337Z,26.93
2018-02-03T10:24:00.208Z,23.07
2018-02-03T10:26:27.098Z,22.33
2018-02-03T10:28:53.009Z,23.30
2018-02-03T10:31:27.835Z,25.10
2018-02-03T10:33:53.720Z,28.37
2018-02-03T10:36:19.586Z,20.27
2018-02-03T10:38:46.455Z,22.67
2018-02-03T10:41:12.354Z,25.97
2018-02-03T10:43:38.461Z,24.50
2018-02-03T10:46:05.395Z,21.33
2018-02-03T10:48:31.297Z,25.93
2018-02-03T10:53:51.863Z,19.20
2018-02-03T10:56:18.749Z,26.73
2018-02-03T10:58:58.801Z,18.93
2018-02-03T11:01:25.748Z,22.90
2018-02-03T11:03:52.674Z,21.00
2018-02-03T11:06:19.648Z,24.77
2018-02-03T11:08:45.551Z,24.20
2018-02-03T11:11:11.550Z,26.17
2018-02-03T11:13:38.563Z,23.97
2018-02-03T11:16:04.453Z,23.97
2018-02-03T11:18:30.401Z,22.73
2018-02-03T11:20:57.304Z,21.70
2018-02-03T11:23:24.262Z,23.87
2018-02-03T11:25:50.188Z,23.37
2018-02-03T11:28:18.140Z,27.50
2018-02-03T11:30:56.897Z,25.87
2018-02-03T11:33:32.627Z,26.60
2018-02-03T11:36:09.278Z,24.93
2018-02-03T11:38:45.471Z,30.27
2018-02-03T11:41:27.412Z,21.50
2018-02-03T11:43:53.366Z,22.83
2018-02-03T11:46:20.366Z,24.93
2018-02-03T11:48:47.280Z,27.43
2018-02-03T11:51:14.280Z,30.60
2018-02-03T11:53:41.319Z,28.50
2018-02-03T11:56:08.203Z,28.67
2018-02-03T11:58:36.241Z,25.57
2018-02-03T12:01:03.254Z,26.10
2018-02-03T12:03:29.184Z,21.83
2018-02-03T12:06:12.842Z,28.97
2018-02-03T12:08:39.876Z,24.07
2018-02-03T12:11:05.853Z,26.33
2018-02-03T12:13:32.791Z,27.90
2018-02-03T12:15:59.734Z,26.83
2018-02-03T12:18:25.701Z,26.50
2018-02-03T12:20:51.564Z,29.40
2018-02-03T12:23:18.560Z,23.03
2018-02-03T12:25:44.481Z,25.17
2018-02-03T12:28:11.408Z,25.43
2018-02-03T12:30:49.673Z,25.77
2018-02-03T12:33:15.633Z,21.03
2018-02-03T12:35:41.594Z,22.87
2018-02-03T12:38:17.767Z,22.67
2018-02-03T12:40:56.707Z,23.87
2018-02-03T12:43:22.705Z,19.87
2018-02-03T12:45:48.622Z,17.53
2018-02-03T12:48:15.597Z,27.07
2018-02-03T12:50:42.562Z,19.53
2018-02-03T12:53:08.484Z,22.17
2018-02-03T12:55:34.410Z,24.80
2018-02-03T12:58:01.359Z,25.53
2018-02-03T13:00:28.372Z,18.77
2018-02-03T13:02:55.281Z,19.93
2018-02-03T13:05:22.185Z,25.00
2018-02-03T13:07:49.140Z,19.13
2018-02-03T13:10:15.184Z,17.83
2018-02-03T13:12:42.184Z,19.53
2018-02-03T13:15:09.169Z,19.23
2018-02-03T13:17:51.596Z,20.47
2018-02-03T13:20:17.492Z,24.80
2018-02-03T13:22:57.921Z,24.40
2018-02-03T13:25:24.894Z,27.10
2018-02-03T13:28:06.582Z,17.33
2018-02-03T13:30:49.312Z,21.40
2018-02-03T13:33:31.317Z,21.33
2018-02-03T13:35:57.487Z,18.47
2018-02-03T13:38:39.310Z,19.33
2018-02-03T13:41:22.989Z,18.07
2018-02-03T13:46:51.544Z,17.70
2018-02-03T13:49:18.533Z,16.40
2018-02-03T13:51:44.453Z,14.07
2018-02-03T13:54:12.555Z,18.67
2018-02-03T13:56:42.423Z,16.53
2018-02-03T13:59:22.353Z,13.47
2018-02-03T14:01:48.275Z,12.10
2018-02-03T14:04:22.331Z,14.10
2018-02-03T14:07:02.688Z,12.33
2018-02-03T14:09:30.687Z,12.00
2018-02-03T14:11:56.686Z,15.47
2018-02-03T14:14:29.572Z,14.57
2018-02-03T14:17:02.822Z,15.40
2018-02-03T14:19:28.671Z,17.43
2018-02-03T14:21:54.584Z,15.23
2018-02-03T14:24:26.668Z,13.43
2018-02-03T14:26:52.587Z,17.90
2018-02-03T14:29:31.963Z,15.53
2018-02-03T14:31:59.927Z,14.67
2018-02-03T14:34:26.033Z,15.23
2018-02-03T14:36:52.952Z,16.17
2018-02-03T14:39:20.909Z,16.33
2018-02-03T14:41:48.887Z,16.80
2018-02-03T14:44:16.879Z,19.13
2018-02-03T14:46:49.029Z,19.43
2018-02-03T14:49:17.092Z,16.13
2018-02-03T14:51:53.655Z,19.03
2018-02-03T14:54:27.085Z,17.73
2018-02-03T14:57:07.521Z,18.13
2018-02-03T14:59:33.448Z,20.97
2018-02-03T15:02:06.452Z,19.30
2018-02-03T15:04:32.360Z,18.00
2018-02-03T15:07:00.328Z,17.33
2018-02-03T15:09:28.270Z,20.77
2018-02-03T15:11:54.203Z,15.27
2018-02-03T15:14:20.101Z,22.10
2018-02-03T15:16:46.034Z,16.57
2018-02-03T15:19:11.894Z,12.80
2018-02-03T15:21:37.855Z,16.60
2018-02-03T15:24:03.884Z,17.53
2018-02-03T15:26:29.836Z,17.40
2018-02-03T15:28:55.751Z,17.50
2018-02-03T15:31:26.719Z,20.00
2018-02-03T15:33:56.815Z,17.47
2018-02-03T15:36:27.526Z,19.77
2018-02-03T15:38:59.765Z,19.37
2018-02-03T15:41:32.186Z,19.67
2018-02-03T15:44:10.698Z,16.93
2018-02-03T15:46:42.972Z,14.87
2018-02-03T15:49:16.535Z,18.20
2018-02-03T15:51:42.736Z,21.27
2018-02-03T15:54:16.219Z,18.27
2018-02-03T15:56:42.208Z,21.30
2018-02-03T15:59:12.864Z,26.13
2018-02-03T16:01:40.745Z,14.67
2018-02-03T16:04:12.658Z,21.77
2018-02-03T16:06:42.291Z,21.03
2018-02-03T16:09:12.598Z,20.17
2018-02-03T16:11:52.891Z,22.23
2018-02-03T16:14:18.825Z,18.80
2018-02-03T16:16:48.854Z,17.30
2018-02-03T16:19:15.758Z,20.03
2018-02-03T16:21:46.701Z,20.63
2018-02-03T16:24:16.237Z,18.37
2018-02-03T16:26:42.148Z,15.73
2018-02-03T16:29:13.239Z,18.03
2018-02-03T16:31:42.816Z,15.10
2018-02-03T16:34:12.096Z,22.47
2018-02-03T16:36:37.974Z,21.50
2018-02-03T16:39:03.924Z,24.37
2018-02-03T16:41:38.232Z,21.73
2018-02-03T16:44:04.173Z,23.10
2018-02-03T16:46:33.149Z,20.07
2018-02-03T16:48:59.109Z,23.30
2018-02-03T16:51:43.072Z,21.57
2018-02-03T16:54:09.094Z,21.00
2018-02-03T16:56:41.206Z,21.53
2018-02-03T16:59:16.461Z,22.17
2018-02-03T17:02:03.645Z,19.00
2018-02-03T17:04:48.432Z,18.10
2018-02-03T17:07:29.994Z,21.80
2018-02-03T17:10:04.565Z,21.33
2018-02-03T17:12:31.523Z,25.03
2018-02-03T17:14:57.558Z,20.33
2018-02-03T17:17:31.517Z,22.47
2018-02-03T17:20:00.994Z,20.97
2018-02-03T17:22:30.529Z,22.80
2018-02-03T17:25:06.806Z,22.30
2018-02-03T17:27:53.256Z,21.00
2018-02-03T17:30:20.231Z,26.13
2018-02-03T17:32:46.462Z,26.07
2018-02-03T17:35:14.196Z,23.30
2018-02-03T17:37:46.272Z,19.27
2018-02-03T17:40:15.198Z,22.90
2018-02-03T17:42:42.282Z,23.57
2018-02-03T17:45:18.282Z,21.93
2018-02-03T17:47:46.178Z,26.20
2018-02-03T17:50:14.206Z,20.13
2018-02-03T17:53:00.303Z,22.20
2018-02-03T17:55:48.227Z,24.90
2018-02-03T17:58:16.134Z,25.47
2018-02-03T18:00:46.185Z,24.43
2018-02-03T18:03:14.198Z,26.97
2018-02-03T18:05:40.192Z,21.23
2018-02-03T18:08:06.229Z,23.17
2018-02-03T18:10:33.179Z,23.93
2018-02-03T18:13:00.079Z,23.47
2018-02-03T18:15:26.018Z,26.40
2018-02-03T18:17:59.019Z,23.47
2018-02-03T18:20:25.953Z,22.40
2018-02-03T18:22:52.866Z,23.27
2018-02-03T18:25:18.769Z,30.93
2018-02-03T18:27:45.807Z,27.00
2018-02-03T18:30:18.807Z,27.83
2018-02-03T18:32:58.001Z,29.60
2018-02-03T18:35:25.062Z,24.77
2018-02-03T18:38:06.774Z,27.93
2018-02-03T18:40:36.486Z,27.90
2018-02-03T18:43:02.427Z,26.53
2018-02-03T18:45:41.587Z,23.97
2018-02-03T18:48:11.569Z,25.77
2018-02-03T18:50:45.980Z,26.87
2018-02-03T18:53:13.869Z,28.33
2018-02-03T18:55:39.718Z,24.27
2018-02-03T18:58:06.698Z,30.30
2018-02-03T19:00:32.600Z,26.80
2018-02-03T19:03:01.928Z,27.03
2018-02-03T19:05:27.861Z,26.23
2018-02-03T19:07:53.772Z,25.60
2018-02-03T19:10:27.945Z,30.40
2018-02-03T19:12:54.828Z,25.13
2018-02-03T19:15:36.019Z,25.67
2018-02-03T19:18:09.916Z,23.53
2018-02-03T19:20:35.850Z,23.73
2018-02-03T19:23:08.743Z,21.43
2018-02-03T19:25:35.684Z,27.60
2018-02-03T19:28:01.568Z,28.97
2018-02-03T19:30:27.483Z,28.90
2018-02-03T19:32:53.322Z,23.50
2018-02-03T19:35:19.204Z,23.77
2018-02-03T19:37:45.174Z,23.97
2018-02-03T19:40:14.513Z,26.80
2018-02-03T19:42:44.808Z,24.60
2018-02-03T19:45:29.237Z,26.97
2018-02-03T19:47:59.225Z,32.03
2018-02-03T19:50:32.355Z,27.07
2018-02-03T19:53:04.839Z,25.13
2018-02-03T19:55:30.772Z,28.00
2018-02-03T19:57:58.728Z,26.83
2018-02-03T20:00:24.776Z,22.83
2018-02-03T20:02:50.782Z,27.27
2018-02-03T20:05:19.953Z,26.73
2018-02-03T20:07:49.497Z,23.33
2018-02-03T20:10:17.465Z,21.20
2018-02-03T20:12:43.393Z,23.73
2018-02-03T20:15:09.263Z,30.07
2018-02-03T20:17:40.728Z,27.07
2018-02-03T20:20:14.027Z,27.90
2018-02-03T20:22:39.967Z,27.50
2018-02-03T20:25:06.940Z,27.97
2018-02-03T20:27:45.891Z,28.67
2018-02-03T20:30:15.484Z,26.90
2018-02-03T20:32:49.848Z,26.60
2018-02-03T20:35:16.817Z,28.70
2018-02-03T20:37:50.600Z,27.03
2018-02-03T20:40:28.294Z,32.13
2018-02-03T20:42:54.174Z,28.33
2018-02-03T20:45:20.122Z,27.80
2018-02-03T20:47:46.062Z,29.03
2018-02-03T20:50:15.498Z,30.60
2018-02-03T20:52:41.407Z,41.63
2018-02-03T20:55:13.141Z,41.27
2018-02-03T20:57:39.368Z,34.27
2018-02-03T21:00:06.373Z,32.57
2018-02-03T21:02:32.330Z,28.83
2018-02-03T21:04:58.339Z,35.33
2018-02-03T21:07:26.279Z,40.60
2018-02-03T21:09:55.941Z,34.50
2018-02-03T21:15:16.076Z,47.90
2018-02-03T21:18:07.660Z,43.77
2018-02-03T21:20:33.529Z,34.03
2018-02-03T21:23:02.880Z,28.23
2018-02-03T21:25:28.824Z,36.23
2018-02-03T21:27:54.814Z,51.43
2018-02-03T21:30:20.714Z,36.40
2018-02-03T21:32:50.177Z,40.10
2018-02-03T21:35:17.107Z,36.10
2018-02-03T21:37:50.882Z,34.63
2018-02-03T21:43:09.622Z,30.93
2018-02-03T21:48:34.521Z,29.20
2018-02-03T21:51:01.454Z,28.73
2018-02-03T21:53:48.838Z,27.80
2018-02-03T21:56:40.380Z,27.87
2018-02-03T21:59:11.942Z,27.03
2018-02-03T22:01:39.802Z,28.70
2018-02-03T22:04:07.770Z,28.13
2018-02-03T22:06:37.074Z,25.80
2018-02-03T22:09:04.951Z,24.20
2018-02-03T22:11:43.776Z,22.27
2018-02-03T22:14:11.686Z,20.00
2018-02-03T22:16:48.208Z,23.63
2018-02-03T22:19:28.958Z,20.57
2018-02-03T22:22:12.398Z,20.37
2018-02-03T22:24:45.042Z,26.80
2018-02-03T22:27:11.041Z,27.23
2018-02-03T22:29:36.945Z,25.93
2018-02-03T22:32:07.312Z,26.40
2018-02-03T22:34:47.296Z,25.73
2018-02-03T22:37:19.840Z,26.13
2018-02-03T22:39:45.794Z,23.43
2018-02-03T22:42:11.654Z,26.97
2018-02-03T22:44:43.138Z,24.87
2018-02-03T22:47:10.014Z,26.33
2018-02-03T22:49:39.125Z,28.93
2018-02-03T22:52:09.563Z,24.07
2018-02-03T22:54:37.610Z,22.03
2018-02-03T22:57:03.522Z,24.33
2018-02-03T22:59:42.752Z,22.20
2018-02-03T23:02:16.793Z,24.17
2018-02-03T23:04:52.732Z,22.40
2018-02-03T23:07:20.733Z,21.27
2018-02-03T23:10:04.228Z,23.93
2018-02-03T23:12:40.910Z,18.80
2018-02-03T23:15:10.543Z,21.07
2018-02-03T23:17:43.871Z,26.10
2018-02-03T23:20:10.801Z,20.87
2018-02-03T23:22:36.935Z,21.23
2018-02-03T23:25:02.941Z,23.13
2018-02-03T23:27:28.805Z,23.03
2018-02-03T23:29:54.668Z,23.63
2018-02-03T23:32:20.586Z,22.10
2018-02-03T23:34:56.618Z,22.63
2018-02-03T23:37:33.090Z,23.97
2018-02-03T23:39:58.987Z,26.63
2018-02-03T23:42:25.153Z,20.73
2018-02-03T23:44:51.077Z,24.90
2018-02-03T23:50:09.444Z,22.53
2018-02-03T23:52:39.450Z,21.50
2018-02-03T23:55:11.831Z,22.53
2018-02-03T23:57:38.751Z,20.97
